Time;durP1;ratioP1;P1;durP2;ratioP2;P2;SDS_P1;SDS_P2;PMS_P1;PMS_P2;Temp;Humidity;BMP_temperature;BMP_pressure;BME280_temperature;BME280_humidity;BME280_pressure;Samples;Min_cycle;Max_cycle;Signal;HPM_P1;HPM_P2
2022/02/06 00:01:02;;;;;;;6.40;2.37;;;5.90;99.90;;;;;;5048906;28;20198;-59
2022/02/06 00:03:30;;;;;;;6.07;2.00;;;6.00;99.90;;;;;;5045107;28;20254;-59
2022/02/06 00:06:00;;;;;;;5.47;1.87;;;6.00;99.90;;;;;;5049182;28;20204;-59
2022/02/06 00:08:27;;;;;;;6.57;1.50;;;6.00;99.90;;;;;;5046977;28;20192;-59
2022/02/06 00:10:54;;;;;;;9.27;1.40;;;6.00;99.90;;;;;;5047188;28;20199;-59
2022/02/06 00:13:22;;;;;;;4.17;1.40;;;6.00;99.90;;;;;;5037107;28;20203;-58
2022/02/06 00:15:49;;;;;;;4.57;1.83;;;6.00;99.90;;;;;;5048551;28;20319;-59
2022/02/06 00:18:16;;;;;;;5.73;1.77;;;6.10;99.90;;;;;;5047813;28;20577;-59
2022/02/06 00:20:50;;;;;;;3.20;1.57;;;6.00;99.90;;;;;;5048842;28;20201;-59
2022/02/06 00:23:22;;;;;;;5.27;1.90;;;6.00;99.90;;;;;;5048355;28;20227;-58
2022/02/06 00:25:57;;;;;;;3.40;1.53;;;6.00;99.90;;;;;;5043198;28;20192;-58
2022/02/06 00:28:36;;;;;;;7.27;1.70;;;6.00;99.90;;;;;;5048738;28;20192;-59
2022/02/06 00:31:12;;;;;;;10.60;2.33;;;6.00;99.90;;;;;;5048573;28;20203;-60
2022/02/06 00:33:47;;;;;;;7.13;1.83;;;6.00;99.90;;;;;;5041745;28;20259;-59
2022/02/06 00:39:06;;;;;;;7.83;2.23;;;5.90;99.90;;;;;;5050128;28;20280;-59
2022/02/06 00:41:34;;;;;;;6.87;2.20;;;5.90;99.90;;;;;;5049016;28;20724;-59
2022/02/06 00:44:06;;;;;;;8.00;2.30;;;5.90;99.90;;;;;;5048015;28;20203;-59
2022/02/06 00:46:35;;;;;;;8.60;2.13;;;5.80;99.90;;;;;;5053177;28;20587;-58
2022/02/06 00:49:11;;;;;;;3.33;1.87;;;5.80;99.90;;;;;;5051660;28;20686;-58
2022/02/06 00:51:45;;;;;;;6.23;1.80;;;5.80;99.90;;;;;;5053361;28;20200;-58
2022/02/06 00:54:13;;;;;;;4.20;1.53;;;5.90;99.90;;;;;;5052704;28;20221;-59
2022/02/06 00:56:41;;;;;;;9.07;2.00;;;5.90;99.90;;;;;;5052206;28;20667;-59
2022/02/06 00:59:08;;;;;;;6.40;1.33;;;5.90;99.90;;;;;;5052544;28;20221;-59
2022/02/06 01:01:36;;;;;;;3.57;1.37;;;5.90;99.90;;;;;;5052962;28;20511;-59
2022/02/06 01:04:04;;;;;;;6.87;2.00;;;5.90;99.90;;;;;;5051769;28;20205;-59
2022/02/06 01:06:31;;;;;;;4.50;1.70;;;5.90;99.90;;;;;;5034469;28;20207;-59
2022/02/06 01:08:58;;;;;;;3.77;1.73;;;5.90;99.90;;;;;;5052218;28;20203;-58
2022/02/06 01:11:27;;;;;;;4.80;1.87;;;6.00;99.90;;;;;;5050754;28;20203;-58
2022/02/06 01:14:03;;;;;;;1.97;1.70;;;6.00;99.90;;;;;;5046779;28;20210;-57
2022/02/06 01:16:34;;;;;;;4.57;1.87;;;6.00;99.90;;;;;;5047688;28;20201;-58
2022/02/06 01:19:06;;;;;;;5.27;1.63;;;6.00;99.90;;;;;;5051349;28;20208;-58
2022/02/06 01:21:38;;;;;;;5.07;1.90;;;6.00;99.90;;;;;;5051745;28;20670;-58
2022/02/06 01:24:11;;;;;;;4.53;1.80;;;6.00;99.90;;;;;;5050675;28;20241;-58
2022/02/06 01:26:44;;;;;;;7.03;2.10;;;6.00;99.90;;;;;;5044183;28;20200;-58
2022/02/06 01:29:18;;;;;;;6.80;2.23;;;5.90;99.90;;;;;;5033694;28;20192;-59
2022/02/06 01:31:53;;;;;;;5.10;2.50;;;5.90;99.90;;;;;;5050853;28;20204;-59
2022/02/06 01:34:25;;;;;;;3.93;2.23;;;5.90;99.90;;;;;;5033047;28;20219;-59
2022/02/06 01:37:05;;;;;;;5.70;2.17;;;5.90;99.90;;;;;;5048382;28;20238;-59
2022/02/06 01:39:49;;;;;;;3.93;2.07;;;5.90;99.90;;;;;;5044711;28;20206;-60
2022/02/06 01:42:26;;;;;;;4.53;2.00;;;5.80;99.90;;;;;;5042682;28;20195;-59
2022/02/06 01:45:07;;;;;;;4.67;2.00;;;5.90;99.90;;;;;;5033040;28;20235;-59
2022/02/06 02:01:34;;;;;;;3.77;2.27;;;6.00;99.90;;;;;;5051641;28;20210;-59
2022/02/06 02:04:09;;;;;;;4.13;2.20;;;6.00;99.90;;;;;;5049815;28;20190;-58
2022/02/06 02:07:15;;;;;;;5.93;2.10;;;6.00;99.90;;;;;;5051048;28;20191;-59
2022/02/06 02:12:50;;;;;;;5.27;2.20;;;6.00;99.90;;;;;;5030868;28;20282;-59
2022/02/06 02:21:13;;;;;;;3.90;1.97;;;5.90;99.90;;;;;;5032441;28;20216;-61
2022/02/06 02:24:15;;;;;;;5.57;2.30;;;5.90;99.90;;;;;;5047097;28;20748;-59
2022/02/06 02:26:53;;;;;;;4.03;2.13;;;5.80;99.90;;;;;;5044027;28;20195;-60
2022/02/06 02:29:55;;;;;;;5.53;2.00;;;5.80;99.90;;;;;;5051041;28;20278;-57
2022/02/06 02:32:48;;;;;;;4.67;2.27;;;5.80;99.90;;;;;;5043710;28;20684;-59
2022/02/06 02:44:11;;;;;;;3.70;2.30;;;5.80;99.90;;;;;;5044581;28;20678;-60
2022/02/06 02:46:39;;;;;;;2.17;2.03;;;5.80;99.90;;;;;;5048287;28;20195;-59
2022/02/06 02:49:09;;;;;;;4.53;2.13;;;5.80;99.90;;;;;;5043057;28;20719;-58
2022/02/06 02:51:42;;;;;;;2.70;2.10;;;5.80;99.90;;;;;;5050253;28;20627;-59
2022/02/06 02:54:14;;;;;;;3.77;1.97;;;5.80;99.90;;;;;;5050334;28;20206;-59
2022/02/06 02:56:46;;;;;;;4.17;2.30;;;5.80;99.90;;;;;;5048647;28;20187;-59
2022/02/06 02:59:20;;;;;;;6.23;2.67;;;5.70;99.90;;;;;;5037931;28;20280;-59
2022/02/06 03:01:52;;;;;;;3.87;2.03;;;5.70;99.90;;;;;;5045382;28;20191;-57
2022/02/06 03:04:20;;;;;;;3.77;2.10;;;5.70;99.90;;;;;;5048401;28;20203;-58
2022/02/06 03:06:47;;;;;;;5.33;2.40;;;5.70;99.90;;;;;;5049671;28;20202;-58
2022/02/06 03:09:17;;;;;;;2.97;2.27;;;5.70;99.90;;;;;;5049672;28;20613;-59
2022/02/06 03:11:44;;;;;;;2.60;2.40;;;5.70;99.90;;;;;;5048404;28;20697;-59
2022/02/06 03:14:15;;;;;;;3.97;2.90;;;5.70;99.90;;;;;;5049616;28;20229;-59
2022/02/06 03:16:49;;;;;;;4.63;2.73;;;5.70;99.90;;;;;;5049420;28;20674;-59
2022/02/06 03:19:18;;;;;;;2.60;2.10;;;5.60;99.90;;;;;;5041334;28;20638;-59
2022/02/06 03:21:46;;;;;;;6.90;2.27;;;5.60;99.90;;;;;;5049132;28;20218;-58
2022/02/06 03:24:22;;;;;;;5.07;2.47;;;5.60;99.90;;;;;;5050479;28;20241;-58
2022/02/06 03:26:51;;;;;;;4.67;2.20;;;5.60;99.90;;;;;;5033974;28;20190;-58
2022/02/06 03:29:20;;;;;;;4.70;2.20;;;5.60;99.90;;;;;;5048755;28;20626;-59
2022/02/06 03:31:48;;;;;;;4.50;2.30;;;5.70;99.90;;;;;;5029136;28;20332;-59
2022/02/06 03:34:17;;;;;;;3.43;2.20;;;5.70;99.90;;;;;;5047722;28;20646;-58
2022/02/06 03:36:44;;;;;;;2.20;2.10;;;5.60;99.90;;;;;;5049717;28;20714;-58
2022/02/06 03:39:12;;;;;;;4.30;1.90;;;5.60;99.90;;;;;;5038892;28;20265;-58
2022/02/06 03:41:53;;;;;;;4.23;2.33;;;5.60;99.90;;;;;;5038012;28;20202;-58
2022/02/06 03:44:26;;;;;;;3.97;2.20;;;5.60;99.90;;;;;;5048951;28;20234;-58
2022/02/06 03:47:03;;;;;;;3.10;2.33;;;5.70;99.90;;;;;;5049806;28;20196;-58
2022/02/06 03:49:41;;;;;;;3.00;2.17;;;5.70;99.90;;;;;;5048132;28;20185;-58
2022/02/06 03:52:08;;;;;;;2.17;1.97;;;5.70;99.90;;;;;;5050226;28;20540;-59
2022/02/06 03:54:35;;;;;;;2.90;2.10;;;5.60;99.90;;;;;;5049011;28;20203;-59
2022/02/06 03:57:05;;;;;;;3.23;2.10;;;5.60;99.90;;;;;;5048117;28;20668;-59
2022/02/06 03:59:34;;;;;;;2.30;1.60;;;5.60;99.90;;;;;;5049183;28;20213;-59
2022/02/06 04:02:01;;;;;;;3.57;1.90;;;5.60;99.90;;;;;;5042257;28;20201;-59
2022/02/06 04:04:28;;;;;;;2.60;1.70;;;5.60;99.90;;;;;;5042544;28;20208;-59
2022/02/06 04:07:02;;;;;;;1.90;1.70;;;5.60;99.90;;;;;;5049081;28;20238;-59
2022/02/06 04:09:35;;;;;;;5.30;2.27;;;5.60;99.90;;;;;;5042755;28;20217;-59
2022/02/06 04:12:03;;;;;;;2.43;1.70;;;5.50;99.90;;;;;;5048085;28;20202;-59
2022/02/06 04:14:41;;;;;;;2.20;2.00;;;5.50;99.90;;;;;;5049911;28;20282;-58
2022/02/06 04:17:19;;;;;;;2.17;1.73;;;5.50;99.90;;;;;;5052100;28;20683;-59
2022/02/06 04:19:46;;;;;;;1.90;1.60;;;5.40;99.90;;;;;;5051504;28;20205;-59
2022/02/06 04:22:14;;;;;;;2.23;1.90;;;5.40;99.90;;;;;;5053755;28;20202;-59
2022/02/06 04:24:41;;;;;;;1.60;1.50;;;5.40;99.90;;;;;;5033589;28;20268;-59
2022/02/06 04:27:08;;;;;;;1.77;1.67;;;5.40;99.90;;;;;;5029919;28;20212;-58
2022/02/06 04:29:37;;;;;;;2.53;1.70;;;5.40;99.90;;;;;;5052940;28;20205;-59
2022/02/06 04:32:04;;;;;;;1.73;1.63;;;5.40;99.90;;;;;;5049347;28;20278;-57
2022/02/06 04:34:32;;;;;;;2.00;1.70;;;5.40;99.90;;;;;;5063955;28;20217;-58
2022/02/06 04:37:05;;;;;;;2.67;1.80;;;5.40;99.90;;;;;;5052913;28;20205;-58
2022/02/06 04:42:26;;;;;;;1.73;1.63;;;5.40;99.90;;;;;;5034489;28;20241;-58
2022/02/06 04:51:10;;;;;;;1.40;1.30;;;5.40;99.90;;;;;;5029769;28;20207;-58
2022/02/06 05:15:41;;;;;;;1.70;1.37;;;5.30;99.90;;;;;;5043788;28;20217;-58
2022/02/06 05:24:22;;;;;;;1.00;1.00;;;5.20;99.90;;;;;;5013695;28;20196;-57
2022/02/06 05:27:11;;;;;;;1.10;1.10;;;5.20;99.90;;;;;;5037301;28;20205;-58
2022/02/06 05:29:46;;;;;;;1.10;1.10;;;5.20;99.90;;;;;;5044151;28;20203;-58
2022/02/06 05:32:21;;;;;;;1.20;1.20;;;5.20;99.90;;;;;;5063916;28;20207;-58
2022/02/06 05:34:50;;;;;;;1.23;1.23;;;5.20;99.90;;;;;;5048106;28;20689;-59
2022/02/06 05:37:17;;;;;;;1.10;1.10;;;4.40;99.90;;;;;;5051885;28;20194;-59
2022/02/06 05:39:44;;;;;;;1.87;1.50;;;5.20;99.90;;;;;;5041435;28;20663;-58
2022/02/06 05:42:11;;;;;;;1.30;1.20;;;5.20;99.90;;;;;;5051550;28;20198;-58
2022/02/06 05:44:38;;;;;;;1.23;1.13;;;5.20;99.90;;;;;;5051043;28;20303;-58
2022/02/06 05:47:05;;;;;;;1.00;1.00;;;5.20;99.90;;;;;;5051847;28;20198;-60
2022/02/06 05:49:32;;;;;;;1.20;1.20;;;5.10;99.90;;;;;;5046589;28;20573;-59
2022/02/06 05:52:01;;;;;;;1.00;1.00;;;5.10;99.90;;;;;;5045902;28;20276;-59
2022/02/06 05:54:28;;;;;;;1.63;1.00;;;5.10;99.90;;;;;;5049160;28;20206;-59
2022/02/06 05:56:55;;;;;;;1.30;1.20;;;5.10;99.90;;;;;;5050030;28;20198;-58
2022/02/06 05:59:22;;;;;;;1.30;1.20;;;5.10;99.90;;;;;;5051419;28;20585;-59
2022/02/06 06:01:50;;;;;;;1.20;1.20;;;5.20;99.90;;;;;;5051183;28;20723;-59
2022/02/06 06:04:17;;;;;;;1.00;1.00;;;5.10;99.90;;;;;;5051280;28;20194;-58
2022/02/06 06:06:44;;;;;;;2.00;1.20;;;5.10;99.90;;;;;;5051018;28;20209;-59
2022/02/06 06:09:13;;;;;;;3.27;0.97;;;5.10;99.90;;;;;;5051623;28;20190;-59
2022/02/06 06:11:40;;;;;;;0.90;0.90;;;5.10;99.90;;;;;;5049925;28;20205;-59
2022/02/06 06:14:07;;;;;;;1.23;1.17;;;5.00;99.90;;;;;;5030213;28;20621;-59
2022/02/06 06:16:35;;;;;;;1.20;1.10;;;5.10;99.90;;;;;;5046170;28;20244;-58
2022/02/06 06:19:03;;;;;;;0.80;0.80;;;5.00;99.90;;;;;;5051086;28;20299;-58
2022/02/06 06:21:37;;;;;;;1.27;1.17;;;5.00;99.90;;;;;;5050517;28;20613;-58
2022/02/06 06:24:04;;;;;;;1.00;1.00;;;5.10;99.90;;;;;;5051075;28;20204;-58
2022/02/06 06:26:37;;;;;;;1.20;1.10;;;5.10;99.90;;;;;;5040946;28;20204;-58
2022/02/06 06:29:05;;;;;;;1.20;1.20;;;5.10;99.90;;;;;;5038991;28;20194;-57
2022/02/06 06:31:32;;;;;;;1.10;1.10;;;5.00;99.90;;;;;;5040060;28;20289;-58
2022/02/06 06:33:59;;;;;;;0.93;0.93;;;5.10;99.90;;;;;;5051030;28;20216;-59
2022/02/06 06:36:30;;;;;;;1.03;1.03;;;5.00;99.90;;;;;;5049857;28;20206;-57
2022/02/06 06:38:57;;;;;;;0.90;0.90;;;5.10;99.90;;;;;;5050940;28;20232;-58
2022/02/06 06:41:24;;;;;;;1.27;1.10;;;5.10;99.90;;;;;;5039653;28;20204;-58
2022/02/06 06:43:53;;;;;;;1.00;1.00;;;5.00;99.90;;;;;;5050801;28;20205;-58
2022/02/06 06:46:20;;;;;;;2.07;1.00;;;5.00;99.90;;;;;;5049947;28;20199;-58
2022/02/06 06:48:47;;;;;;;1.37;0.93;;;5.00;99.90;;;;;;5050358;28;20197;-58
2022/02/06 06:51:14;;;;;;;0.90;0.90;;;5.00;99.90;;;;;;5042855;28;20206;-58
2022/02/06 06:53:44;;;;;;;1.20;1.10;;;5.00;99.90;;;;;;5050565;28;20190;-58
2022/02/06 06:56:16;;;;;;;0.80;0.80;;;5.00;99.90;;;;;;5048355;28;20202;-58
2022/02/06 06:58:47;;;;;;;1.10;0.90;;;5.00;99.90;;;;;;5050295;28;20232;-58
2022/02/06 07:01:43;;;;;;;0.70;0.70;;;5.10;99.90;;;;;;5050107;28;20281;-58
2022/02/06 07:04:10;;;;;;;1.03;0.93;;;5.10;99.90;;;;;;5046548;28;20277;-59
2022/02/06 07:06:37;;;;;;;1.43;0.80;;;5.10;99.90;;;;;;5049977;28;20253;-59
2022/02/06 07:09:04;;;;;;;1.10;1.00;;;5.10;99.90;;;;;;5049443;28;20190;-59
2022/02/06 07:11:38;;;;;;;0.90;0.90;;;5.20;99.90;;;;;;5040701;28;20221;-59
2022/02/06 07:14:05;;;;;;;1.00;0.90;;;5.20;99.90;;;;;;5049085;28;20806;-59
2022/02/06 07:16:36;;;;;;;1.00;1.00;;;5.20;99.90;;;;;;5049132;28;20198;-58
2022/02/06 07:19:03;;;;;;;0.80;0.80;;;5.10;99.90;;;;;;5048977;28;20270;-57
2022/02/06 07:21:34;;;;;;;0.93;0.90;;;5.10;99.90;;;;;;5049209;28;20201;-59
2022/02/06 07:24:01;;;;;;;0.93;0.90;;;5.20;99.90;;;;;;5049626;28;20503;-59
2022/02/06 07:26:28;;;;;;;1.00;1.00;;;5.20;99.90;;;;;;5048356;28;20203;-59
2022/02/06 07:28:59;;;;;;;1.43;1.33;;;5.20;99.90;;;;;;5038796;28;20251;-59
2022/02/06 07:31:26;;;;;;;1.20;0.97;;;5.30;99.90;;;;;;5031673;28;20287;-60
2022/02/06 07:33:55;;;;;;;0.70;0.70;;;5.30;99.90;;;;;;5049584;28;20280;-58
2022/02/06 07:36:23;;;;;;;1.63;1.00;;;5.40;99.90;;;;;;5047236;28;20290;-59
2022/02/06 07:38:50;;;;;;;0.97;0.87;;;5.40;99.90;;;;;;5048292;28;20252;-59
2022/02/06 07:41:17;;;;;;;0.97;0.97;;;5.40;99.90;;;;;;5048012;28;20261;-58
2022/02/06 07:43:44;;;;;;;1.90;1.07;;;5.40;99.90;;;;;;5041384;28;20269;-57
2022/02/06 07:46:13;;;;;;;1.23;1.13;;;5.50;99.90;;;;;;5043402;28;20201;-58
2022/02/06 07:48:40;;;;;;;1.10;1.00;;;5.50;99.90;;;;;;5043355;28;20201;-58
2022/02/06 07:51:09;;;;;;;1.43;1.10;;;5.50;99.90;;;;;;5040067;28;20531;-58
2022/02/06 07:53:36;;;;;;;0.93;0.93;;;5.60;99.90;;;;;;5047200;28;20328;-58
2022/02/06 07:56:03;;;;;;;1.47;1.37;;;5.60;99.90;;;;;;5047868;28;20536;-58
2022/02/06 07:58:30;;;;;;;1.40;1.30;;;5.50;99.90;;;;;;5025561;28;20200;-58
2022/02/06 08:00:57;;;;;;;0.80;0.80;;;5.50;99.90;;;;;;5044596;28;20217;-59
2022/02/06 08:03:26;;;;;;;1.10;1.10;;;5.50;99.90;;;;;;5049915;28;20199;-59
2022/02/06 08:05:53;;;;;;;1.10;1.00;;;5.60;99.90;;;;;;5048895;28;20311;-59
2022/02/06 08:08:22;;;;;;;1.50;1.37;;;5.60;99.90;;;;;;5044660;28;20283;-59
2022/02/06 08:10:49;;;;;;;1.67;1.43;;;5.60;99.90;;;;;;5044406;28;20199;-59
2022/02/06 08:13:24;;;;;;;1.57;1.40;;;5.60;99.90;;;;;;5049480;28;20205;-59
2022/02/06 08:15:51;;;;;;;1.83;1.20;;;5.60;99.90;;;;;;5044278;28;20196;-59
2022/02/06 08:18:19;;;;;;;1.13;1.10;;;5.70;99.90;;;;;;5045787;28;20265;-58
2022/02/06 08:20:46;;;;;;;1.97;1.10;;;5.70;99.90;;;;;;5046610;28;20207;-60
2022/02/06 08:23:14;;;;;;;1.37;1.33;;;5.70;99.90;;;;;;5049113;28;20198;-59
2022/02/06 08:25:42;;;;;;;1.30;1.20;;;5.70;99.90;;;;;;5047234;28;20531;-59
2022/02/06 08:28:09;;;;;;;1.40;1.30;;;5.80;99.90;;;;;;5038825;28;20558;-59
2022/02/06 08:30:38;;;;;;;1.10;1.00;;;5.80;99.90;;;;;;5036640;28;20281;-60
2022/02/06 08:33:05;;;;;;;1.27;1.17;;;5.80;99.90;;;;;;5049289;28;20283;-58
2022/02/06 08:35:32;;;;;;;1.40;1.20;;;5.10;99.90;;;;;;5039586;28;20281;-59
2022/02/06 08:37:59;;;;;;;1.10;1.00;;;5.80;99.90;;;;;;5049374;28;20678;-59
2022/02/06 08:40:26;;;;;;;1.00;1.00;;;5.90;99.90;;;;;;5046922;28;20215;-59
2022/02/06 08:42:55;;;;;;;1.53;1.00;;;5.90;99.90;;;;;;5042581;28;20203;-59
2022/02/06 08:45:23;;;;;;;0.83;0.70;;;5.90;99.90;;;;;;5029025;28;20255;-58
2022/02/06 08:47:50;;;;;;;1.27;1.00;;;6.00;99.90;;;;;;5049263;28;20668;-59
2022/02/06 08:50:17;;;;;;;0.77;0.77;;;6.00;99.90;;;;;;5047897;28;20226;-59
2022/02/06 08:52:44;;;;;;;1.80;1.00;;;6.00;99.90;;;;;;5048517;28;20243;-59
2022/02/06 08:55:12;;;;;;;1.20;1.10;;;6.00;99.90;;;;;;5047116;28;20204;-59
2022/02/06 08:57:44;;;;;;;1.30;0.90;;;6.10;99.90;;;;;;5049244;28;20237;-59
2022/02/06 09:00:15;;;;;;;0.80;0.80;;;6.20;99.90;;;;;;5042578;28;20230;-58
2022/02/06 09:02:42;;;;;;;1.00;1.00;;;6.20;99.90;;;;;;5052692;28;20192;-59
2022/02/06 09:05:11;;;;;;;0.93;0.90;;;6.20;99.90;;;;;;5052202;28;20534;-59
2022/02/06 09:07:39;;;;;;;1.60;1.50;;;6.30;99.90;;;;;;5052228;28;20204;-59
2022/02/06 09:10:07;;;;;;;1.67;1.40;;;6.30;99.90;;;;;;5048903;28;20196;-59
2022/02/06 09:12:35;;;;;;;1.30;1.20;;;6.30;99.90;;;;;;5052823;28;20204;-59
2022/02/06 09:15:03;;;;;;;1.37;1.07;;;6.30;99.90;;;;;;5051675;28;20230;-59
2022/02/06 09:17:32;;;;;;;0.70;0.70;;;6.30;99.90;;;;;;5050111;28;20218;-59
2022/02/06 09:19:59;;;;;;;0.83;0.70;;;6.30;99.90;;;;;;5043738;28;20643;-59
2022/02/06 09:22:26;;;;;;;1.20;1.10;;;6.30;99.90;;;;;;5034396;28;20204;-59
2022/02/06 09:24:53;;;;;;;1.33;1.00;;;6.30;99.90;;;;;;5041390;28;20212;-59
2022/02/06 09:27:21;;;;;;;1.10;1.00;;;6.40;99.90;;;;;;5052991;28;20222;-58
2022/02/06 09:29:49;;;;;;;1.10;1.07;;;6.30;99.90;;;;;;5051058;28;20196;-59
2022/02/06 09:37:11;;;;;;;1.90;1.10;;;6.40;99.90;;;;;;5051848;28;20656;-58
2022/02/06 09:39:41;;;;;;;1.10;1.00;;;6.50;99.90;;;;;;5049458;28;20283;-59
2022/02/06 09:42:10;;;;;;;1.20;1.10;;;6.50;99.90;;;;;;5039146;28;20536;-58
2022/02/06 09:44:38;;;;;;;2.17;1.20;;;6.40;99.90;;;;;;5049983;28;20240;-58
2022/02/06 09:47:06;;;;;;;2.07;1.57;;;6.40;99.90;;;;;;5048010;28;20641;-59
2022/02/06 09:49:34;;;;;;;0.80;0.80;;;6.40;99.90;;;;;;5047632;28;20250;-58
2022/02/06 09:52:02;;;;;;;0.97;0.93;;;6.40;99.90;;;;;;5045215;28;20714;-59
2022/02/06 09:54:30;;;;;;;1.30;1.20;;;6.40;99.90;;;;;;5039867;28;20208;-59
2022/02/06 09:57:00;;;;;;;1.20;1.10;;;6.40;99.90;;;;;;5048907;28;20192;-59
2022/02/06 09:59:30;;;;;;;1.27;1.17;;;6.50;99.90;;;;;;5050515;28;20515;-59
2022/02/06 10:01:58;;;;;;;1.20;1.10;;;6.50;99.90;;;;;;5027998;28;20220;-58
2022/02/06 10:04:27;;;;;;;1.53;1.30;;;6.50;99.90;;;;;;5049753;28;20212;-58
2022/02/06 10:07:01;;;;;;;1.53;1.10;;;6.50;99.90;;;;;;5049521;28;20196;-60
2022/02/06 10:09:34;;;;;;;1.57;1.20;;;6.60;99.90;;;;;;5049637;28;20200;-59
2022/02/06 10:12:02;;;;;;;1.30;1.20;;;6.60;99.90;;;;;;5045906;28;20246;-59
2022/02/06 10:14:30;;;;;;;2.37;1.50;;;6.70;99.90;;;;;;5048769;28;20283;-58
2022/02/06 10:16:57;;;;;;;1.87;1.20;;;6.80;99.90;;;;;;5044549;28;20371;-59
2022/02/06 10:19:25;;;;;;;1.53;1.37;;;6.80;99.90;;;;;;5049948;28;20232;-59
2022/02/06 10:21:52;;;;;;;1.33;1.13;;;6.80;99.90;;;;;;5036451;28;20243;-59
2022/02/06 10:24:26;;;;;;;1.80;1.50;;;6.80;99.90;;;;;;5050359;28;20258;-59
2022/02/06 10:27:15;;;;;;;1.33;1.20;;;6.90;99.90;;;;;;5044616;28;20360;-58
2022/02/06 10:29:44;;;;;;;1.50;1.40;;;6.90;99.90;;;;;;5049112;28;20654;-59
2022/02/06 10:32:17;;;;;;;1.83;1.40;;;6.90;99.90;;;;;;5041439;28;20202;-59
2022/02/06 10:34:45;;;;;;;1.60;1.20;;;6.90;99.90;;;;;;5048688;28;20196;-58
2022/02/06 10:37:15;;;;;;;1.57;1.20;;;7.00;99.90;;;;;;5050184;28;20224;-58
2022/02/06 10:39:52;;;;;;;1.40;1.30;;;7.00;99.90;;;;;;5031833;28;20200;-59
2022/02/06 10:42:23;;;;;;;1.00;0.90;;;7.00;99.90;;;;;;5050479;28;20188;-58
2022/02/06 10:45:11;;;;;;;3.23;1.30;;;7.10;99.90;;;;;;5027070;28;20368;-59
2022/02/06 10:47:38;;;;;;;1.13;1.10;;;7.20;99.90;;;;;;5027199;28;20244;-59
2022/02/06 10:50:09;;;;;;;1.13;1.10;;;7.30;99.90;;;;;;5029550;28;20208;-58
2022/02/06 10:52:36;;;;;;;1.10;1.00;;;7.30;99.90;;;;;;5029733;28;20236;-59
2022/02/06 10:55:05;;;;;;;1.03;1.03;;;7.40;99.90;;;;;;5028143;28;20205;-59
2022/02/06 10:57:36;;;;;;;0.80;0.80;;;7.30;99.90;;;;;;5021137;28;20662;-60
2022/02/06 11:00:06;;;;;;;0.90;0.90;;;7.30;99.90;;;;;;5021059;28;20195;-60
2022/02/06 11:02:37;;;;;;;1.10;1.00;;;7.30;99.90;;;;;;5029951;28;20190;-59
2022/02/06 11:05:12;;;;;;;1.30;1.20;;;7.20;99.90;;;;;;5021870;28;20280;-59
2022/02/06 11:07:50;;;;;;;1.30;0.90;;;7.20;99.90;;;;;;5024357;28;20194;-59
2022/02/06 11:10:18;;;;;;;2.43;1.10;;;7.30;99.90;;;;;;5019653;28;20222;-58
2022/02/06 11:12:51;;;;;;;1.10;1.00;;;7.30;99.90;;;;;;5030155;28;20629;-58
2022/02/06 11:15:25;;;;;;;1.20;1.10;;;7.30;99.90;;;;;;5027987;28;20214;-59
2022/02/06 11:18:12;;;;;;;0.80;0.80;;;7.30;99.90;;;;;;5030089;28;20553;-59
2022/02/06 11:20:52;;;;;;;1.20;1.10;;;7.40;99.90;;;;;;5021338;28;20208;-58
2022/02/06 11:23:19;;;;;;;1.53;1.07;;;7.50;99.90;;;;;;5029019;28;20248;-57
2022/02/06 11:25:47;;;;;;;0.70;0.70;;;7.60;99.90;;;;;;5022821;28;20206;-59
2022/02/06 11:28:16;;;;;;;0.80;0.80;;;7.60;99.90;;;;;;5023288;28;20191;-59
2022/02/06 11:30:43;;;;;;;1.10;1.00;;;7.60;99.90;;;;;;5024244;28;20198;-59
2022/02/06 11:33:10;;;;;;;1.03;1.03;;;7.70;99.90;;;;;;5029745;28;20202;-59
2022/02/06 11:35:39;;;;;;;1.00;1.00;;;7.80;99.90;;;;;;5028920;28;20228;-59
2022/02/06 11:44:26;;;;;;;1.27;1.17;;;7.70;99.90;;;;;;5028468;28;20194;-59
2022/02/06 11:47:03;;;;;;;1.00;1.00;;;7.60;99.90;;;;;;5035145;28;20256;-59
2022/02/06 11:49:31;;;;;;;1.83;1.60;;;7.60;99.90;;;;;;5045236;28;20579;-58
2022/02/06 11:52:00;;;;;;;1.37;1.13;;;7.50;99.90;;;;;;5029378;28;20210;-58
2022/02/06 11:54:29;;;;;;;1.83;1.20;;;7.50;99.90;;;;;;5040727;28;20209;-59
2022/02/06 11:57:20;;;;;;;1.30;1.20;;;7.50;99.90;;;;;;5047623;28;20276;-58
2022/02/06 12:00:20;;;;;;;1.23;1.10;;;7.50;99.90;;;;;;5047455;28;20206;-59
2022/02/06 12:02:51;;;;;;;0.93;0.90;;;7.60;99.90;;;;;;5038506;28;20215;-60
2022/02/06 12:05:27;;;;;;;1.40;1.30;;;7.70;99.90;;;;;;5047708;28;20205;-58
2022/02/06 12:07:56;;;;;;;1.20;1.10;;;7.70;99.90;;;;;;5048427;28;20206;-58
2022/02/06 12:10:44;;;;;;;1.00;1.00;;;7.70;99.90;;;;;;5046833;28;20266;-58
2022/02/06 12:13:30;;;;;;;1.23;1.13;;;7.70;99.90;;;;;;5041216;28;20621;-58
2022/02/06 12:16:01;;;;;;;1.57;1.30;;;7.70;99.90;;;;;;5036705;28;20280;-58
2022/02/06 12:18:30;;;;;;;2.20;1.40;;;7.80;99.90;;;;;;5042695;28;20304;-58
2022/02/06 12:21:08;;;;;;;1.33;1.20;;;7.80;99.90;;;;;;5047757;28;20217;-59
2022/02/06 12:23:42;;;;;;;2.33;1.00;;;7.80;99.90;;;;;;5049084;28;20271;-58
2022/02/06 12:26:47;;;;;;;2.00;1.27;;;7.90;99.90;;;;;;5046599;28;20200;-59
2022/02/06 12:29:20;;;;;;;1.60;1.30;;;8.00;99.90;;;;;;5038723;28;20198;-59
2022/02/06 12:31:56;;;;;;;2.50;1.40;;;8.00;99.90;;;;;;5038911;28;20255;-59
2022/02/06 12:37:31;;;;;;;1.53;1.23;;;8.00;99.90;;;;;;5051590;28;20203;-59
2022/02/06 12:40:01;;;;;;;1.37;1.27;;;8.00;99.90;;;;;;5032666;28;20216;-58
2022/02/06 12:42:30;;;;;;;1.43;1.33;;;7.90;99.90;;;;;;5044119;28;20319;-59
2022/02/06 12:44:59;;;;;;;1.87;1.20;;;7.90;99.90;;;;;;5051712;28;20264;-58
2022/02/06 12:47:30;;;;;;;1.30;1.20;;;8.00;99.90;;;;;;5051875;28;20685;-58
2022/02/06 12:49:58;;;;;;;2.17;1.30;;;7.90;99.90;;;;;;5049247;28;20557;-59
2022/02/06 12:52:26;;;;;;;1.47;1.00;;;7.90;99.90;;;;;;5032944;28;20201;-58
2022/02/06 12:54:53;;;;;;;1.80;1.20;;;7.90;99.90;;;;;;5050500;28;20302;-59
2022/02/06 12:57:20;;;;;;;1.10;1.00;;;7.90;99.90;;;;;;5052675;28;20599;-58
2022/02/06 12:59:49;;;;;;;1.00;1.00;;;7.90;99.90;;;;;;5048690;28;20264;-58
2022/02/06 13:02:22;;;;;;;1.40;1.17;;;7.90;99.90;;;;;;5052972;28;20698;-58
2022/02/06 13:05:10;;;;;;;1.47;1.30;;;7.80;99.90;;;;;;5051690;28;20568;-58
2022/02/06 13:07:44;;;;;;;2.03;1.20;;;7.80;99.90;;;;;;5051647;28;20206;-58
2022/02/06 13:10:12;;;;;;;1.60;1.40;;;7.80;99.90;;;;;;5043986;28;20695;-59
2022/02/06 13:12:53;;;;;;;1.37;1.27;;;7.90;99.90;;;;;;5046692;28;20201;-59
2022/02/06 13:15:49;;;;;;;1.53;1.20;;;7.90;99.90;;;;;;5034270;28;20268;-59
2022/02/06 13:18:22;;;;;;;1.63;1.50;;;7.90;99.90;;;;;;5050642;28;20198;-59
2022/02/06 13:21:09;;;;;;;1.50;1.40;;;8.00;99.90;;;;;;5041175;28;20199;-58
2022/02/06 13:24:00;;;;;;;2.73;1.53;;;7.90;99.90;;;;;;5041671;28;20202;-59
2022/02/06 13:26:35;;;;;;;1.50;1.40;;;7.90;99.90;;;;;;5036094;28;20229;-58
2022/02/06 13:29:12;;;;;;;3.00;1.90;;;8.00;99.90;;;;;;5051379;28;20207;-58
2022/02/06 13:34:38;;;;;;;1.93;1.50;;;7.90;99.90;;;;;;5030571;28;20213;-58
2022/02/06 13:37:12;;;;;;;2.77;1.70;;;7.90;99.90;;;;;;5050551;28;20283;-58
2022/02/06 13:39:49;;;;;;;1.57;1.47;;;7.80;99.90;;;;;;5051125;28;20197;-59
2022/02/06 13:42:18;;;;;;;2.00;1.57;;;7.80;99.90;;;;;;5051400;28;20214;-57
2022/02/06 13:45:00;;;;;;;2.83;1.80;;;7.80;99.90;;;;;;5050886;28;20276;-57
2022/02/06 13:47:27;;;;;;;1.70;1.60;;;7.90;99.90;;;;;;5041083;28;20202;-60
2022/02/06 13:49:59;;;;;;;1.80;1.50;;;7.90;99.90;;;;;;5049058;28;20561;-58
2022/02/06 13:52:30;;;;;;;2.17;1.70;;;7.90;99.90;;;;;;5039790;28;20676;-59
2022/02/06 13:54:57;;;;;;;1.60;1.47;;;7.90;99.90;;;;;;5049640;28;20308;-58
2022/02/06 13:57:26;;;;;;;1.50;1.37;;;7.80;99.90;;;;;;5051315;28;20198;-59
2022/02/06 13:59:53;;;;;;;1.93;1.47;;;7.90;99.90;;;;;;5050780;28;20725;-57
2022/02/06 14:02:20;;;;;;;1.83;1.50;;;7.80;99.90;;;;;;5051389;28;20238;-58
2022/02/06 14:04:51;;;;;;;2.67;1.90;;;7.90;99.90;;;;;;5050089;28;20279;-59
2022/02/06 14:07:21;;;;;;;2.67;1.90;;;7.90;99.90;;;;;;5040935;28;20557;-58
2022/02/06 14:10:04;;;;;;;2.40;1.63;;;7.90;99.90;;;;;;5046142;28;20204;-59
2022/02/06 14:12:48;;;;;;;2.70;1.83;;;7.90;99.90;;;;;;5046921;28;20194;-59
2022/02/06 14:15:23;;;;;;;4.13;2.10;;;7.90;99.90;;;;;;5049757;28;20727;-59
2022/02/06 14:17:52;;;;;;;3.23;2.40;;;7.90;99.90;;;;;;5047297;28;20273;-57
2022/02/06 14:20:24;;;;;;;4.30;2.63;;;7.90;99.90;;;;;;5032045;28;20293;-58
2022/02/06 14:22:53;;;;;;;2.30;1.90;;;7.90;99.90;;;;;;5041848;28;20210;-58
2022/02/06 14:25:30;;;;;;;3.90;2.00;;;7.90;99.90;;;;;;5030783;28;20221;-59
2022/02/06 14:27:58;;;;;;;2.50;2.00;;;7.80;99.90;;;;;;5047732;28;20244;-57
2022/02/06 14:30:28;;;;;;;4.20;2.17;;;7.80;99.90;;;;;;5050518;28;20700;-59
2022/02/06 14:33:07;;;;;;;3.13;2.07;;;7.80;99.90;;;;;;5050669;28;20186;-57
2022/02/06 14:35:47;;;;;;;3.53;1.70;;;7.80;99.90;;;;;;5050204;28;20202;-58
2022/02/06 14:38:23;;;;;;;1.90;1.80;;;7.80;99.90;;;;;;5049736;28;20193;-58
2022/02/06 14:41:04;;;;;;;3.67;1.93;;;7.80;99.90;;;;;;5048293;28;20208;-58
2022/02/06 14:43:39;;;;;;;2.37;1.70;;;7.80;99.90;;;;;;5050524;28;20731;-58
2022/02/06 14:46:07;;;;;;;2.00;1.80;;;7.80;99.90;;;;;;5048787;28;20229;-59
2022/02/06 14:48:35;;;;;;;3.63;2.07;;;7.90;99.90;;;;;;5043215;28;20273;-58